»·PEaware :: N21DA KRDD-KMFR

N21DA :: KRDD-KMFR

FLIGHT INFORMATION

Flight Status: Arrived
Operator: Privately registered:
United States
More flights under this callsign
Pilot: Dan A. (12711)
Aircraft: CESSNA 206 STATIONAIR
(C206)
More flights by this aircraft type
Origin: KRDD Redding Mun
United States
Destination: KMFR Rogue Valley Intl-Medford
United States
More flights between these airports :: More routes between these airports
Route: +FOLDS V23 TALEM
File this flight plan on PilotEdge
Remarks:
Altitude:
(Current/Filed)
10,000ft
Speed:
(Current/Filed)
180kts
Departed: 16-Aug-19 05:03 PM
Arrived: 16-Aug-19 05:59 PM
Distance/Time
Traveled:
114nm/0:56
Distance/Time
To Go:
Arrived

Flight Plot

Page will automatically refresh every two minutes.

Flight plan parsing failed; only flown route is shown


Map Options




Map Legend


Flown Route
Filed Route
Departure Airport
Arrival Airport
Navaid (VOR, NDB)
Fix

Horizontal Profiles

Position Reports

Time Latitude Longitude Heading Altitude Ground
Speed
16-Aug-19 16:42 40.508949 -122.299199 360 506ft 0kts
16-Aug-19 16:43 40.508949 -122.299199 360 506ft 0kts
16-Aug-19 16:44 40.508949 -122.299199 360 506ft 0kts
16-Aug-19 16:45 40.508949 -122.299199 360 506ft 0kts
16-Aug-19 16:46 40.508949 -122.299199 360 506ft 0kts
16-Aug-19 16:47 40.508949 -122.299199 360 506ft 0kts
16-Aug-19 16:48 40.508949 -122.299199 360 506ft 0kts
16-Aug-19 16:49 40.508949 -122.299199 360 506ft 0kts
16-Aug-19 16:50 40.508949 -122.299199 360 506ft 0kts
16-Aug-19 16:51 40.508949 -122.299199 360 506ft 0kts
16-Aug-19 16:52 40.508949 -122.299199 360 506ft 0kts
16-Aug-19 16:53 40.508949 -122.299199 360 506ft 0kts
16-Aug-19 16:54 40.508949 -122.299199 360 506ft 0kts
16-Aug-19 16:55 40.508949 -122.299199 360 506ft 0kts
16-Aug-19 16:56 40.508813 -122.299235 146 506ft 6kts
16-Aug-19 16:57 40.504647 -122.298246 178 506ft 15kts
16-Aug-19 16:58 40.502574 -122.296793 134 506ft 5kts
16-Aug-19 16:59 40.501864 -122.295838 132 506ft 0kts
16-Aug-19 17:00 40.501864 -122.295838 132 506ft 0kts
16-Aug-19 17:01 40.501861 -122.295833 132 506ft 0kts
16-Aug-19 17:02 40.510710 -122.293600 22 909ft 79kts
16-Aug-19 17:03 40.529886 -122.303894 304 2204ft 99kts
16-Aug-19 17:04 40.551786 -122.332345 323 3406ft 119kts
16-Aug-19 17:05 40.579297 -122.357788 325 4655ft 122kts
16-Aug-19 17:06 40.607219 -122.383222 325 5903ft 122kts
16-Aug-19 17:07 40.634972 -122.408633 324 7126ft 122kts
16-Aug-19 17:08 40.662852 -122.434192 323 8330ft 123kts
16-Aug-19 17:09 40.683858 -122.465691 255 9527ft 124kts
16-Aug-19 17:10 40.650186 -122.467345 164 10032ft 156kts
16-Aug-19 17:11 40.607058 -122.448213 165 10085ft 168kts
16-Aug-19 17:12 40.579921 -122.468342 304 10059ft 153kts
16-Aug-19 17:13 40.622197 -122.477885 355 10093ft 160kts
16-Aug-19 17:14 40.665990 -122.486416 340 10097ft 158kts
16-Aug-19 17:15 40.708120 -122.503957 339 10082ft 159kts
16-Aug-19 17:16 40.750186 -122.521582 340 10102ft 157kts
16-Aug-19 17:17 40.791877 -122.538424 340 10158ft 158kts
16-Aug-19 17:18 40.834041 -122.555436 340 10163ft 159kts
16-Aug-19 17:19 40.876315 -122.572581 340 10156ft 159kts
16-Aug-19 17:20 40.918724 -122.589568 340 10152ft 159kts
16-Aug-19 17:21 40.960996 -122.606731 340 10152ft 159kts
16-Aug-19 17:22 41.003109 -122.623838 340 10186ft 157kts
16-Aug-19 17:23 41.044941 -122.640665 340 10236ft 156kts
16-Aug-19 17:24 41.086569 -122.657374 341 10139ft 162kts
16-Aug-19 17:25 41.128080 -122.674526 340 10173ft 157kts
16-Aug-19 17:26 41.167787 -122.690642 340 10191ft 156kts
16-Aug-19 17:27 41.209334 -122.707527 340 10227ft 156kts
16-Aug-19 17:28 41.251415 -122.724680 340 10167ft 159kts
16-Aug-19 17:29 41.293396 -122.741926 341 10154ft 157kts
16-Aug-19 17:30 41.335165 -122.759051 341 10151ft 157kts
16-Aug-19 17:31 41.377020 -122.776145 341 10151ft 157kts
16-Aug-19 17:32 41.418776 -122.793360 341 10140ft 157kts
16-Aug-19 17:33 41.460640 -122.807400 351 10243ft 154kts
16-Aug-19 17:34 41.504829 -122.811910 353 10118ft 162kts
16-Aug-19 17:35 41.549531 -122.816212 353 10092ft 157kts
16-Aug-19 17:36 41.593084 -122.820602 353 10101ft 158kts
16-Aug-19 17:37 41.636865 -122.825284 352 10102ft 158kts
16-Aug-19 17:38 41.680806 -122.829513 353 10102ft 158kts
16-Aug-19 17:39 41.724637 -122.834146 352 10101ft 158kts
16-Aug-19 17:40 41.768460 -122.839543 352 10102ft 158kts
16-Aug-19 17:41 41.812287 -122.843910 352 10101ft 158kts
16-Aug-19 17:42 41.856172 -122.848440 351 10101ft 158kts
16-Aug-19 17:43 41.899914 -122.853140 351 10121ft 157kts
16-Aug-19 17:44 41.943655 -122.857345 354 10147ft 157kts
16-Aug-19 17:45 41.988866 -122.858990 356 9950ft 163kts
16-Aug-19 17:46 42.035383 -122.860352 356 9495ft 172kts
16-Aug-19 17:47 42.078093 -122.861822 354 9358ft 134kts
16-Aug-19 17:48 42.114076 -122.863300 1 9354ft 127kts
16-Aug-19 17:49 42.144493 -122.842531 25 9358ft 129kts
16-Aug-19 17:50 42.175447 -122.819150 25 9401ft 127kts
16-Aug-19 17:51 42.206658 -122.795673 25 9399ft 129kts
16-Aug-19 17:52 42.238182 -122.772842 6 9393ft 126kts
16-Aug-19 17:53 42.258161 -122.804633 278 9397ft 121kts
16-Aug-19 17:54 42.286602 -122.826313 332 6453ft 118kts
16-Aug-19 17:55 42.314840 -122.841788 343 3141ft 104kts
16-Aug-19 17:56 42.334844 -122.852388 337 2057ft 55kts
16-Aug-19 17:57 42.351617 -122.860935 334 1693ft 67kts
16-Aug-19 17:58 42.367373 -122.870123 284 1337ft 26kts

Navigation Log

Ident Type
Flight plan parsing failed, navigation log unavailable